createdAt,value
2022-12-14T00:00:21.181Z,14.15
2022-12-14T00:03:23.546Z,13.90
2022-12-14T00:06:27.160Z,13.13
2022-12-14T00:09:29.320Z,14.60
2022-12-14T00:12:31.530Z,14.18
2022-12-14T00:15:34.208Z,12.30
2022-12-14T00:18:36.437Z,13.60
2022-12-14T00:21:38.604Z,14.77
2022-12-14T00:24:40.792Z,10.40
2022-12-14T00:27:46.500Z,13.30
2022-12-14T00:30:48.908Z,14.27
2022-12-14T00:33:52.749Z,13.33
2022-12-14T00:36:55.685Z,14.35
2022-12-14T00:39:57.933Z,14.02
2022-12-14T00:43:00.590Z,12.15
2022-12-14T00:46:02.934Z,15.93
2022-12-14T00:49:05.143Z,14.20
2022-12-14T00:52:07.859Z,14.27
2022-12-14T00:55:10.087Z,12.98
2022-12-14T00:58:14.340Z,12.75
2022-12-14T01:01:17.421Z,12.18
2022-12-14T01:04:21.559Z,13.80
2022-12-14T01:07:23.883Z,13.80
2022-12-14T01:10:26.189Z,15.43
2022-12-14T01:13:28.869Z,17.95
2022-12-14T01:16:32.116Z,11.68
2022-12-14T01:19:34.698Z,12.30
2022-12-14T01:22:37.368Z,13.10
2022-12-14T01:25:39.564Z,13.90
2022-12-14T01:28:41.842Z,13.38
2022-12-14T01:31:44.041Z,13.43
2022-12-14T01:34:51.348Z,12.43
2022-12-14T01:37:53.659Z,15.27
2022-12-14T01:40:59.194Z,14.27
2022-12-14T01:44:02.749Z,14.63
2022-12-14T01:47:10.550Z,14.35
2022-12-14T01:50:33.544Z,18.83
2022-12-14T01:53:35.728Z,11.50
2022-12-14T01:56:38.855Z,14.77
2022-12-14T01:59:42.396Z,11.95
2022-12-14T02:02:48.040Z,13.82
2022-12-14T02:05:53.145Z,13.40
2022-12-14T02:08:56.300Z,13.45
2022-12-14T02:12:08.615Z,13.30
2022-12-14T02:15:12.478Z,14.48
2022-12-14T02:18:18.585Z,15.65
2022-12-14T02:21:20.817Z,14.67
2022-12-14T02:24:41.290Z,14.68
2022-12-14T02:27:43.494Z,14.52
2022-12-14T02:30:50.145Z,13.88
2022-12-14T02:34:03.121Z,14.40
2022-12-14T02:37:11.181Z,14.80
2022-12-14T02:40:13.441Z,15.77
2022-12-14T02:43:15.628Z,15.57
2022-12-14T02:46:17.793Z,13.98
2022-12-14T02:49:38.945Z,17.30
2022-12-14T02:52:46.394Z,16.43
2022-12-14T02:55:52.933Z,16.05
2022-12-14T02:58:55.616Z,15.75
2022-12-14T03:01:59.792Z,16.60
2022-12-14T03:05:02.378Z,15.52
2022-12-14T03:08:04.893Z,17.17
2022-12-14T03:11:07.712Z,16.27
2022-12-14T03:14:17.415Z,17.10
2022-12-14T03:17:22.199Z,15.48
2022-12-14T03:20:25.768Z,16.75
2022-12-14T03:23:31.730Z,13.03
2022-12-14T03:26:33.970Z,15.10
2022-12-14T03:29:40.237Z,15.95
2022-12-14T03:32:46.020Z,13.93
2022-12-14T03:36:00.085Z,17.08
2022-12-14T03:39:03.868Z,15.93
2022-12-14T03:42:06.052Z,16.50
2022-12-14T03:45:37.785Z,17.67
2022-12-14T03:48:51.952Z,15.02
2022-12-14T03:52:16.656Z,16.20
2022-12-14T03:55:21.869Z,15.63
2022-12-14T03:58:42.330Z,15.25
2022-12-14T04:01:59.273Z,14.13
2022-12-14T04:05:08.031Z,14.70
2022-12-14T04:08:18.049Z,13.95
2022-12-14T04:11:39.497Z,14.97
2022-12-14T04:15:03.408Z,14.45
2022-12-14T04:18:25.850Z,14.70
2022-12-14T04:21:31.166Z,13.48
2022-12-14T04:24:58.600Z,12.45
2022-12-14T04:28:06.463Z,12.80
2022-12-14T04:31:09.920Z,12.77
2022-12-14T04:34:13.738Z,13.05
2022-12-14T04:37:17.074Z,13.98
2022-12-14T04:40:22.291Z,13.13
2022-12-14T04:43:26.879Z,14.07
2022-12-14T04:46:35.183Z,13.02
2022-12-14T04:49:44.739Z,12.43
2022-12-14T04:52:51.151Z,13.63
2022-12-14T04:56:13.592Z,13.25
2022-12-14T04:59:15.809Z,12.33
2022-12-14T05:02:21.365Z,12.77
2022-12-14T05:05:26.232Z,12.07
2022-12-14T05:08:31.421Z,11.68
2022-12-14T05:11:52.989Z,12.48
2022-12-14T05:14:58.634Z,12.10
2022-12-14T05:18:04.680Z,11.68
2022-12-14T05:21:08.048Z,9.52
2022-12-14T05:24:11.200Z,12.55
2022-12-14T05:27:13.481Z,10.77
2022-12-14T05:30:16.055Z,11.53
2022-12-14T05:33:19.841Z,10.40
2022-12-14T05:36:22.216Z,11.57
2022-12-14T05:39:24.376Z,10.63
2022-12-14T05:42:26.595Z,12.63
2022-12-14T05:45:28.739Z,12.10
2022-12-14T05:48:31.522Z,10.52
2022-12-14T05:51:33.697Z,11.60
2022-12-14T05:54:36.135Z,10.27
2022-12-14T05:57:38.285Z,10.32
2022-12-14T06:00:40.469Z,9.43
2022-12-14T06:03:42.816Z,10.63
2022-12-14T06:06:45.218Z,9.95
2022-12-14T06:09:47.409Z,9.95
2022-12-14T06:12:49.679Z,11.60
2022-12-14T06:15:51.983Z,11.73
2022-12-14T06:18:55.466Z,10.27
2022-12-14T06:21:57.670Z,8.25
2022-12-14T06:24:59.912Z,9.50
2022-12-14T06:28:02.126Z,9.50
2022-12-14T06:31:05.149Z,11.17
2022-12-14T06:34:07.657Z,9.60
2022-12-14T06:37:09.990Z,11.50
2022-12-14T06:40:12.327Z,9.68
2022-12-14T06:43:14.618Z,8.63
2022-12-14T06:46:18.419Z,9.83
2022-12-14T06:49:25.225Z,11.85
2022-12-14T06:52:27.931Z,10.65
2022-12-14T06:55:31.876Z,11.75
2022-12-14T06:58:41.868Z,11.30
2022-12-14T07:01:51.051Z,12.90
2022-12-14T07:04:59.006Z,10.73
2022-12-14T07:08:02.856Z,11.50
2022-12-14T07:11:10.125Z,10.52
2022-12-14T07:14:17.155Z,11.25
2022-12-14T07:17:20.636Z,13.07
2022-12-14T07:20:25.199Z,10.43
2022-12-14T07:23:30.136Z,10.68
2022-12-14T07:26:33.531Z,11.15
2022-12-14T07:29:37.054Z,10.68
2022-12-14T07:32:40.095Z,10.17
2022-12-14T07:35:43.106Z,11.55
2022-12-14T07:38:47.557Z,10.95
2022-12-14T07:41:51.452Z,10.13
2022-12-14T07:44:56.859Z,10.63
2022-12-14T07:47:59.290Z,10.00
2022-12-14T07:51:02.737Z,9.43
2022-12-14T07:54:06.628Z,9.43
2022-12-14T07:57:10.279Z,9.68
2022-12-14T08:00:13.808Z,8.45
2022-12-14T08:03:18.664Z,9.30
2022-12-14T08:06:23.271Z,8.75
2022-12-14T08:09:26.815Z,10.30
2022-12-14T08:12:30.195Z,7.15
2022-12-14T08:15:37.655Z,9.80
2022-12-14T08:18:43.794Z,9.17
2022-12-14T08:21:47.621Z,10.20
2022-12-14T08:24:50.992Z,9.85
2022-12-14T08:27:54.687Z,8.18
2022-12-14T08:30:58.548Z,9.00
2022-12-14T08:34:02.841Z,6.83
2022-12-14T08:37:06.359Z,8.88
2022-12-14T08:40:10.118Z,9.45
2022-12-14T08:43:13.034Z,9.82
2022-12-14T08:46:15.711Z,9.10
2022-12-14T08:49:26.417Z,7.87
2022-12-14T08:52:35.802Z,9.25
2022-12-14T08:55:40.273Z,8.32
2022-12-14T08:58:45.473Z,8.13
2022-12-14T09:01:48.779Z,9.55
2022-12-14T09:04:54.885Z,10.13
2022-12-14T09:07:58.517Z,8.45
2022-12-14T09:11:05.282Z,8.30
2022-12-14T09:14:09.119Z,8.70
2022-12-14T09:17:14.112Z,8.55
2022-12-14T09:20:19.530Z,9.57
2022-12-14T09:23:27.608Z,9.25
2022-12-14T09:26:31.334Z,9.25
2022-12-14T09:29:34.485Z,9.65
2022-12-14T09:32:37.355Z,9.00
2022-12-14T09:35:40.096Z,8.00
2022-12-14T09:38:50.656Z,9.40
2022-12-14T09:42:05.988Z,12.57
2022-12-14T09:45:17.525Z,10.18
2022-12-14T09:48:22.080Z,9.10
2022-12-14T09:51:31.109Z,9.00
2022-12-14T09:54:38.560Z,8.80
2022-12-14T09:57:41.702Z,9.35
2022-12-14T10:00:53.166Z,10.13
2022-12-14T10:04:09.066Z,9.90
2022-12-14T10:07:12.714Z,9.70
2022-12-14T10:10:29.298Z,10.23
2022-12-14T10:13:50.769Z,10.27
2022-12-14T10:17:30.832Z,8.23
2022-12-14T10:20:48.681Z,10.25
2022-12-14T10:23:57.353Z,9.87
2022-12-14T10:27:00.447Z,8.85
2022-12-14T10:30:06.235Z,7.88
2022-12-14T10:33:20.617Z,11.32
2022-12-14T10:36:29.010Z,9.93
2022-12-14T10:39:43.785Z,9.30
2022-12-14T10:43:07.659Z,9.27
2022-12-14T10:46:28.471Z,9.80
2022-12-14T10:49:50.040Z,9.15
2022-12-14T10:52:56.122Z,9.75
2022-12-14T10:56:02.004Z,7.83
2022-12-14T10:59:16.713Z,11.27
2022-12-14T11:02:22.457Z,10.30
2022-12-14T11:05:26.418Z,10.05
2022-12-14T11:08:54.843Z,10.38
2022-12-14T11:12:05.474Z,10.00
2022-12-14T11:15:22.462Z,10.65
2022-12-14T11:18:34.582Z,9.95
2022-12-14T11:21:42.105Z,10.25
2022-12-14T11:24:46.014Z,8.93
2022-12-14T11:27:50.033Z,9.00
2022-12-14T11:31:01.417Z,9.57
2022-12-14T11:34:05.446Z,10.77
2022-12-14T11:37:14.098Z,10.38
2022-12-14T11:40:21.264Z,8.93
2022-12-14T11:43:29.211Z,9.43
2022-12-14T11:46:44.788Z,9.35
2022-12-14T11:49:55.324Z,10.05
2022-12-14T11:53:11.220Z,9.63
2022-12-14T11:56:16.669Z,8.90
2022-12-14T11:59:19.667Z,9.33
2022-12-14T12:02:35.486Z,10.88
2022-12-14T12:05:41.906Z,9.75
2022-12-14T12:08:44.850Z,10.05
2022-12-14T12:11:48.870Z,11.18
2022-12-14T12:14:56.287Z,9.77
2022-12-14T12:18:00.991Z,10.45
2022-12-14T12:21:10.322Z,10.95
2022-12-14T12:24:31.991Z,8.27
2022-12-14T12:27:34.555Z,10.07
2022-12-14T12:30:39.177Z,11.33
2022-12-14T12:34:02.174Z,9.98
2022-12-14T12:40:50.051Z,9.63
2022-12-14T12:44:09.762Z,9.75
2022-12-14T12:47:26.520Z,9.90
2022-12-14T12:50:33.966Z,9.38
2022-12-14T12:53:40.200Z,10.48
2022-12-14T12:56:48.292Z,9.85
2022-12-14T12:59:53.479Z,10.23
2022-12-14T13:03:01.356Z,10.37
2022-12-14T13:06:20.932Z,9.38
2022-12-14T13:09:38.911Z,10.45
2022-12-14T13:12:52.586Z,9.32
2022-12-14T13:15:56.145Z,10.32
2022-12-14T13:19:19.089Z,9.80
2022-12-14T13:22:29.502Z,12.35
2022-12-14T13:25:40.943Z,9.55
2022-12-14T13:28:55.586Z,9.60
2022-12-14T13:32:07.163Z,11.13
2022-12-14T13:35:15.724Z,9.27
2022-12-14T13:38:32.832Z,11.05
2022-12-14T13:42:05.221Z,10.30
2022-12-14T13:45:17.246Z,10.52
2022-12-14T13:48:33.934Z,9.55
2022-12-14T13:51:38.231Z,12.50
2022-12-14T13:54:40.492Z,11.18
2022-12-14T13:57:42.906Z,10.95
2022-12-14T14:00:45.318Z,9.02
2022-12-14T14:03:54.495Z,11.02
2022-12-14T14:07:17.085Z,10.90
2022-12-14T14:10:31.123Z,9.27
2022-12-14T14:13:33.980Z,11.43
2022-12-14T14:16:42.256Z,12.18
2022-12-14T14:19:49.346Z,10.02
2022-12-14T14:23:11.285Z,11.83
2022-12-14T14:26:16.971Z,10.93
2022-12-14T14:29:32.670Z,11.57
2022-12-14T14:32:35.413Z,9.93
2022-12-14T14:35:38.635Z,11.07
2022-12-14T14:38:42.210Z,11.23
2022-12-14T14:41:45.272Z,11.07
2022-12-14T14:44:50.833Z,10.70
2022-12-14T14:47:59.364Z,9.80
2022-12-14T14:51:10.803Z,12.25
2022-12-14T14:54:37.635Z,11.43
2022-12-14T14:57:56.224Z,12.15
2022-12-14T15:01:02.082Z,13.07
2022-12-14T15:04:18.483Z,12.60
2022-12-14T15:07:27.988Z,10.85
2022-12-14T15:10:30.271Z,12.40
2022-12-14T15:13:39.369Z,12.82
2022-12-14T15:16:43.663Z,11.68
2022-12-14T15:19:47.613Z,10.05
2022-12-14T15:22:50.520Z,9.20
2022-12-14T15:26:00.431Z,10.20
2022-12-14T15:29:04.683Z,11.90
2022-12-14T15:32:07.087Z,12.68
2022-12-14T15:35:15.730Z,10.68
2022-12-14T15:38:29.922Z,11.52
2022-12-14T15:41:33.331Z,11.47
2022-12-14T15:44:36.091Z,11.55
2022-12-14T15:47:38.361Z,11.57
2022-12-14T15:50:42.978Z,10.32
2022-12-14T15:53:50.337Z,12.00
2022-12-14T15:57:00.033Z,9.27
2022-12-14T16:00:02.405Z,11.57
2022-12-14T16:03:16.001Z,11.77
2022-12-14T16:06:18.984Z,12.18
2022-12-14T16:09:38.188Z,11.85
2022-12-14T16:12:45.831Z,10.77
2022-12-14T16:15:49.374Z,10.65
2022-12-14T16:18:51.878Z,9.93
2022-12-14T16:22:09.156Z,11.20
2022-12-14T16:25:16.889Z,11.05
2022-12-14T16:28:27.520Z,10.90
2022-12-14T16:31:30.041Z,12.07
2022-12-14T16:34:33.488Z,9.52
2022-12-14T16:37:35.677Z,10.73
2022-12-14T16:40:40.045Z,10.35
2022-12-14T16:43:54.098Z,11.60
2022-12-14T16:47:19.407Z,10.80
2022-12-14T16:54:11.937Z,11.65
2022-12-14T16:57:21.264Z,10.45
2022-12-14T17:00:25.917Z,11.03
2022-12-14T17:04:01.827Z,11.45
2022-12-14T17:07:04.457Z,10.70
2022-12-14T17:10:11.483Z,11.95
2022-12-14T17:13:13.812Z,12.13
2022-12-14T17:16:21.072Z,12.57
2022-12-14T17:19:28.249Z,10.82
2022-12-14T17:22:31.729Z,11.68
2022-12-14T17:25:34.163Z,7.32
2022-12-14T17:28:36.470Z,11.30
2022-12-14T17:31:41.900Z,11.03
2022-12-14T17:34:48.457Z,12.48
2022-12-14T17:37:51.044Z,10.38
2022-12-14T17:40:56.726Z,11.90
2022-12-14T17:43:59.214Z,14.07
2022-12-14T17:47:01.456Z,12.57
2022-12-14T17:50:03.774Z,12.98
2022-12-14T17:53:06.147Z,12.57
2022-12-14T17:56:08.695Z,12.98
2022-12-14T17:59:11.070Z,11.25
2022-12-14T18:02:27.854Z,11.60
2022-12-14T18:05:31.332Z,11.50
2022-12-14T18:08:33.744Z,11.15
2022-12-14T18:11:39.213Z,12.35
2022-12-14T18:14:47.441Z,12.07
2022-12-14T18:17:51.683Z,11.97
2022-12-14T18:20:55.649Z,12.43
2022-12-14T18:23:58.017Z,13.02
2022-12-14T18:27:00.463Z,13.20
2022-12-14T18:30:04.185Z,12.80
2022-12-14T18:33:07.493Z,12.07
2022-12-14T18:36:11.704Z,11.25
2022-12-14T18:39:13.965Z,11.90
2022-12-14T18:42:20.724Z,12.10
2022-12-14T18:45:26.546Z,9.82
2022-12-14T18:48:29.099Z,12.33
2022-12-14T18:51:31.536Z,12.68
2022-12-14T18:54:33.961Z,12.95
2022-12-14T18:57:36.461Z,12.13
2022-12-14T19:00:39.594Z,12.10
2022-12-14T19:03:42.496Z,13.13
2022-12-14T19:06:46.204Z,12.80
2022-12-14T19:09:48.611Z,12.07
2022-12-14T19:12:51.187Z,13.02
2022-12-14T19:15:54.347Z,12.82
2022-12-14T19:18:57.199Z,13.33
2022-12-14T19:21:59.569Z,13.65
2022-12-14T19:25:01.879Z,13.00
2022-12-14T19:28:30.726Z,13.48
2022-12-14T19:31:27.276Z,12.23
2022-12-14T19:34:29.953Z,11.33
2022-12-14T19:37:32.802Z,12.10
2022-12-14T19:40:35.262Z,11.50
2022-12-14T19:43:38.467Z,14.02
2022-12-14T19:46:40.830Z,11.75
2022-12-14T19:49:43.332Z,11.47
2022-12-14T19:52:45.698Z,12.77
2022-12-14T19:55:51.098Z,12.00
2022-12-14T19:58:57.727Z,11.23
2022-12-14T20:02:01.352Z,11.05
2022-12-14T20:05:04.331Z,11.33
2022-12-14T20:08:06.759Z,11.80
2022-12-14T20:11:10.230Z,11.57
2022-12-14T20:14:13.153Z,12.02
2022-12-14T20:17:15.602Z,12.70
2022-12-14T20:20:18.664Z,12.17
2022-12-14T20:23:24.447Z,13.60
2022-12-14T20:26:27.524Z,13.60
2022-12-14T20:29:29.933Z,13.43
2022-12-14T20:32:32.258Z,14.23
2022-12-14T20:35:34.810Z,11.23
2022-12-14T20:38:37.521Z,12.73
2022-12-14T20:41:39.771Z,12.60
2022-12-14T20:44:42.134Z,11.10
2022-12-14T20:47:44.563Z,12.18
2022-12-14T20:50:49.494Z,14.00
2022-12-14T20:53:53.644Z,15.13
2022-12-14T20:56:56.478Z,12.57
2022-12-14T20:59:59.557Z,12.68
2022-12-14T21:03:02.553Z,12.73
2022-12-14T21:06:05.371Z,12.40
2022-12-14T21:09:12.082Z,12.15
2022-12-14T21:12:23.445Z,12.00
2022-12-14T21:15:25.894Z,11.27
2022-12-14T21:18:28.227Z,11.90
2022-12-14T21:21:30.885Z,11.40
2022-12-14T21:27:56.920Z,11.98
2022-12-14T21:31:03.335Z,12.02
2022-12-14T21:34:05.573Z,13.40
2022-12-14T21:37:08.085Z,12.30
2022-12-14T21:40:30.343Z,12.40
2022-12-14T21:43:32.967Z,12.93
2022-12-14T21:46:35.616Z,11.32
2022-12-14T21:49:42.066Z,12.20
2022-12-14T21:52:44.281Z,12.27
2022-12-14T21:55:50.086Z,13.18
2022-12-14T21:58:53.893Z,13.68
2022-12-14T22:01:57.403Z,12.48
2022-12-14T22:04:59.703Z,13.43
2022-12-14T22:08:01.914Z,13.70
2022-12-14T22:11:04.847Z,12.50
2022-12-14T22:14:07.437Z,12.38
2022-12-14T22:17:10.791Z,12.45
2022-12-14T22:20:12.981Z,14.18
2022-12-14T22:23:15.680Z,13.10
2022-12-14T22:26:18.486Z,13.05
2022-12-14T22:29:22.284Z,12.90
2022-12-14T22:32:24.785Z,13.48
2022-12-14T22:35:27.071Z,13.70
2022-12-14T22:38:31.598Z,12.50
2022-12-14T22:41:33.868Z,13.20
2022-12-14T22:44:36.128Z,13.38
2022-12-14T22:47:38.357Z,12.98
2022-12-14T22:50:40.612Z,13.30
2022-12-14T22:53:43.348Z,13.13
2022-12-14T22:56:56.838Z,13.45
2022-12-14T23:00:04.983Z,13.73
2022-12-14T23:03:07.482Z,12.77
2022-12-14T23:06:15.565Z,13.35
2022-12-14T23:09:36.467Z,14.83
2022-12-14T23:12:57.408Z,13.23
2022-12-14T23:16:18.345Z,14.50
2022-12-14T23:19:39.428Z,14.27
2022-12-14T23:23:00.282Z,12.00
2022-12-14T23:26:21.984Z,13.90
2022-12-14T23:29:42.466Z,13.85
2022-12-14T23:33:03.350Z,14.05
2022-12-14T23:36:24.151Z,13.32
2022-12-14T23:39:45.036Z,13.00
2022-12-14T23:43:06.064Z,14.53
2022-12-14T23:46:26.988Z,14.20
2022-12-14T23:49:47.724Z,13.45
2022-12-14T23:53:08.663Z,12.90
2022-12-14T23:56:29.712Z,13.57
2022-12-14T23:59:50.546Z,13.77
